Portada
METAR-TAF:

METAR-TAF

Aeroports :

Txità, Rússia

latitud: 52-05N, longitud: 113-29E, altitud: 685 m

Observació

L'informe es va fer fa 36 minuts, a les 04:00 UTC
Vent 2 kt amb direcció variable
Temperatura 21°C
Humitat 23%
Pressió 999 hPa
Visibilitat 10 km o més

METAR: UIAA 220400Z VRB01MPS 9999 NSC 21/M01 Q0999 R29/70D NOSIG RMK QFE691/0922

Hora: 13:36 (04:36 UTC)

Pronòstic

L'informe es va fer fa 2 hores i 36 minuts, a les 02:00 UTC
Pronòstic vàlid del 22 a les 03 UTC al 23 a les 03 UTC
Vent 6 kt del Sud/Sud-Oest amb ràfegues de 16 kt
Visibilitat 10 km o més
Núvols disperses a una alçada de 4000 ft, Cumulonimbus.
Evolucionant progressivament
l' 22 a les 12 UTC al 22 a les 14 UTC
Vent 12 kt del Oest amb ràfegues de 27 kt
Temporalment
l' 22 a les 14 UTC al 23 a les 03 UTC
Visibilitat: 3100 m
xàfecs de pluja

TAF: UIAA 220200Z 2203/2303 21003G08MPS 9999 SCT040CB BECMG 2212/2214 28006G14MPS TEMPO 2214/2303 3100 -SHRA

Observacions i pronòstics meteorològics de més de 4000 aeroports (METAR i TAF).

Les estacions disponibles són els punts grocs i vermells al mapa.

Posi el ratolí al punt desitjat per veure el nom de l'estació.

Feu clic per veure les observacions i els pronòstics meteorològics.

Per canviar el mapa: feu clic els botons verds amb una creu de color negre per apropar; al botó verd amb un guió per allunyar la imatge; o en les fletxes verdes per a mapes adjacents.


METAR-TAF: